sensor_id;sensor_type;location;lat;lon;timestamp;P1;durP1;ratioP1;P2;durP2;ratioP2
2956;SDS011;1488;51.548;7.222;2023-05-10T00:01:19;1.50;;;1.30;;
2956;SDS011;1488;51.548;7.222;2023-05-10T00:03:46;1.80;;;1.70;;
2956;SDS011;1488;51.548;7.222;2023-05-10T00:06:13;9.60;;;1.43;;
2956;SDS011;1488;51.548;7.222;2023-05-10T00:08:41;1.30;;;1.20;;
2956;SDS011;1488;51.548;7.222;2023-05-10T00:11:08;1.50;;;1.40;;
2956;SDS011;1488;51.548;7.222;2023-05-10T00:13:35;1.80;;;1.70;;
2956;SDS011;1488;51.548;7.222;2023-05-10T00:16:02;1.73;;;1.63;;
2956;SDS011;1488;51.548;7.222;2023-05-10T00:18:29;1.40;;;1.30;;
2956;SDS011;1488;51.548;7.222;2023-05-10T00:20:55;1.50;;;1.40;;
2956;SDS011;1488;51.548;7.222;2023-05-10T00:23:22;1.53;;;1.43;;
2956;SDS011;1488;51.548;7.222;2023-05-10T00:25:50;1.60;;;1.50;;
2956;SDS011;1488;51.548;7.222;2023-05-10T00:28:17;1.43;;;1.33;;
2956;SDS011;1488;51.548;7.222;2023-05-10T00:30:44;1.50;;;1.40;;
2956;SDS011;1488;51.548;7.222;2023-05-10T00:33:11;1.60;;;1.50;;
2956;SDS011;1488;51.548;7.222;2023-05-10T00:35:37;1.70;;;1.60;;
2956;SDS011;1488;51.548;7.222;2023-05-10T00:38:04;1.23;;;1.13;;
2956;SDS011;1488;51.548;7.222;2023-05-10T00:40:31;1.67;;;1.57;;
2956;SDS011;1488;51.548;7.222;2023-05-10T00:42:59;1.70;;;1.60;;
2956;SDS011;1488;51.548;7.222;2023-05-10T00:45:26;1.40;;;1.30;;
2956;SDS011;1488;51.548;7.222;2023-05-10T00:47:53;1.30;;;1.20;;
2956;SDS011;1488;51.548;7.222;2023-05-10T00:50:21;2.27;;;1.40;;
2956;SDS011;1488;51.548;7.222;2023-05-10T00:52:48;1.40;;;1.27;;
2956;SDS011;1488;51.548;7.222;2023-05-10T00:55:15;1.50;;;1.40;;
2956;SDS011;1488;51.548;7.222;2023-05-10T00:57:42;1.40;;;1.30;;
2956;SDS011;1488;51.548;7.222;2023-05-10T01:00:11;1.30;;;1.20;;
2956;SDS011;1488;51.548;7.222;2023-05-10T01:02:42;1.43;;;1.33;;
2956;SDS011;1488;51.548;7.222;2023-05-10T01:05:10;1.50;;;1.20;;
2956;SDS011;1488;51.548;7.222;2023-05-10T01:07:36;1.40;;;1.30;;
2956;SDS011;1488;51.548;7.222;2023-05-10T01:10:03;1.80;;;1.40;;
2956;SDS011;1488;51.548;7.222;2023-05-10T01:12:31;1.53;;;1.43;;
2956;SDS011;1488;51.548;7.222;2023-05-10T01:14:58;1.30;;;1.20;;
2956;SDS011;1488;51.548;7.222;2023-05-10T01:17:28;1.40;;;1.30;;
2956;SDS011;1488;51.548;7.222;2023-05-10T01:19:56;1.67;;;1.30;;
2956;SDS011;1488;51.548;7.222;2023-05-10T01:22:30;1.60;;;1.40;;
2956;SDS011;1488;51.548;7.222;2023-05-10T01:25:17;1.40;;;1.30;;
2956;SDS011;1488;51.548;7.222;2023-05-10T01:31:08;3.27;;;1.40;;
2956;SDS011;1488;51.548;7.222;2023-05-10T01:33:50;1.83;;;1.30;;
2956;SDS011;1488;51.548;7.222;2023-05-10T01:36:23;1.30;;;1.20;;
2956;SDS011;1488;51.548;7.222;2023-05-10T01:38:59;1.37;;;1.20;;
2956;SDS011;1488;51.548;7.222;2023-05-10T01:41:36;1.30;;;1.20;;
2956;SDS011;1488;51.548;7.222;2023-05-10T01:44:10;1.47;;;1.37;;
2956;SDS011;1488;51.548;7.222;2023-05-10T01:46:42;1.40;;;1.30;;
2956;SDS011;1488;51.548;7.222;2023-05-10T01:49:13;1.40;;;1.30;;
2956;SDS011;1488;51.548;7.222;2023-05-10T01:51:47;1.53;;;1.40;;
2956;SDS011;1488;51.548;7.222;2023-05-10T01:54:17;1.50;;;1.40;;
2956;SDS011;1488;51.548;7.222;2023-05-10T01:56:48;1.40;;;1.30;;
2956;SDS011;1488;51.548;7.222;2023-05-10T01:59:21;1.70;;;1.60;;
2956;SDS011;1488;51.548;7.222;2023-05-10T02:01:48;1.60;;;1.50;;
2956;SDS011;1488;51.548;7.222;2023-05-10T02:04:18;1.33;;;1.23;;
2956;SDS011;1488;51.548;7.222;2023-05-10T02:06:48;1.37;;;1.27;;
2956;SDS011;1488;51.548;7.222;2023-05-10T02:09:16;1.53;;;1.43;;
2956;SDS011;1488;51.548;7.222;2023-05-10T02:11:45;1.37;;;1.27;;
2956;SDS011;1488;51.548;7.222;2023-05-10T02:14:14;1.33;;;1.17;;
2956;SDS011;1488;51.548;7.222;2023-05-10T02:16:42;1.30;;;1.20;;
2956;SDS011;1488;51.548;7.222;2023-05-10T02:19:10;1.30;;;1.20;;
2956;SDS011;1488;51.548;7.222;2023-05-10T02:21:41;1.50;;;1.40;;
2956;SDS011;1488;51.548;7.222;2023-05-10T02:24:09;1.40;;;1.30;;
2956;SDS011;1488;51.548;7.222;2023-05-10T02:26:37;1.30;;;1.20;;
2956;SDS011;1488;51.548;7.222;2023-05-10T02:29:04;1.40;;;1.30;;
2956;SDS011;1488;51.548;7.222;2023-05-10T02:31:32;1.30;;;1.20;;
2956;SDS011;1488;51.548;7.222;2023-05-10T02:34:08;1.60;;;1.50;;
2956;SDS011;1488;51.548;7.222;2023-05-10T02:36:37;1.50;;;1.40;;
2956;SDS011;1488;51.548;7.222;2023-05-10T02:39:06;1.43;;;1.33;;
2956;SDS011;1488;51.548;7.222;2023-05-10T02:41:37;1.37;;;1.27;;
2956;SDS011;1488;51.548;7.222;2023-05-10T02:44:06;1.50;;;1.40;;
2956;SDS011;1488;51.548;7.222;2023-05-10T02:46:34;1.47;;;1.37;;
2956;SDS011;1488;51.548;7.222;2023-05-10T02:49:02;1.57;;;1.30;;
2956;SDS011;1488;51.548;7.222;2023-05-10T02:51:30;1.30;;;1.20;;
2956;SDS011;1488;51.548;7.222;2023-05-10T02:54:00;1.23;;;1.13;;
2956;SDS011;1488;51.548;7.222;2023-05-10T02:56:46;1.47;;;1.37;;
2956;SDS011;1488;51.548;7.222;2023-05-10T02:59:16;1.37;;;1.27;;
2956;SDS011;1488;51.548;7.222;2023-05-10T03:01:43;1.20;;;1.10;;
2956;SDS011;1488;51.548;7.222;2023-05-10T03:04:10;1.40;;;1.30;;
2956;SDS011;1488;51.548;7.222;2023-05-10T03:06:37;1.30;;;1.20;;
2956;SDS011;1488;51.548;7.222;2023-05-10T03:09:04;1.60;;;1.50;;
2956;SDS011;1488;51.548;7.222;2023-05-10T03:11:36;1.40;;;1.30;;
2956;SDS011;1488;51.548;7.222;2023-05-10T03:14:21;1.30;;;1.20;;
2956;SDS011;1488;51.548;7.222;2023-05-10T03:17:02;1.13;;;1.03;;
2956;SDS011;1488;51.548;7.222;2023-05-10T03:19:35;1.47;;;1.37;;
2956;SDS011;1488;51.548;7.222;2023-05-10T03:22:09;1.40;;;1.30;;
2956;SDS011;1488;51.548;7.222;2023-05-10T03:24:39;1.30;;;1.20;;
2956;SDS011;1488;51.548;7.222;2023-05-10T03:27:08;1.40;;;1.30;;
2956;SDS011;1488;51.548;7.222;2023-05-10T03:29:37;1.30;;;1.20;;
2956;SDS011;1488;51.548;7.222;2023-05-10T03:32:05;1.27;;;1.17;;
2956;SDS011;1488;51.548;7.222;2023-05-10T03:34:32;1.20;;;1.10;;
2956;SDS011;1488;51.548;7.222;2023-05-10T03:36:58;1.67;;;1.57;;
2956;SDS011;1488;51.548;7.222;2023-05-10T03:39:25;1.37;;;1.27;;
2956;SDS011;1488;51.548;7.222;2023-05-10T03:41:52;1.30;;;1.20;;
2956;SDS011;1488;51.548;7.222;2023-05-10T03:44:19;1.40;;;1.30;;
2956;SDS011;1488;51.548;7.222;2023-05-10T03:46:47;2.10;;;1.37;;
2956;SDS011;1488;51.548;7.222;2023-05-10T03:49:14;1.30;;;1.10;;
2956;SDS011;1488;51.548;7.222;2023-05-10T03:51:40;1.30;;;1.20;;
2956;SDS011;1488;51.548;7.222;2023-05-10T03:54:07;1.37;;;1.27;;
2956;SDS011;1488;51.548;7.222;2023-05-10T03:56:34;1.20;;;1.10;;
2956;SDS011;1488;51.548;7.222;2023-05-10T03:59:01;1.37;;;1.20;;
2956;SDS011;1488;51.548;7.222;2023-05-10T04:01:32;1.47;;;1.37;;
2956;SDS011;1488;51.548;7.222;2023-05-10T04:04:00;1.47;;;1.37;;
2956;SDS011;1488;51.548;7.222;2023-05-10T04:06:27;1.30;;;1.20;;
2956;SDS011;1488;51.548;7.222;2023-05-10T04:08:54;1.37;;;1.27;;
2956;SDS011;1488;51.548;7.222;2023-05-10T04:11:21;1.30;;;1.10;;
2956;SDS011;1488;51.548;7.222;2023-05-10T04:13:47;1.30;;;1.20;;
2956;SDS011;1488;51.548;7.222;2023-05-10T04:16:14;1.30;;;1.07;;
2956;SDS011;1488;51.548;7.222;2023-05-10T04:18:41;1.40;;;1.30;;
2956;SDS011;1488;51.548;7.222;2023-05-10T04:21:12;1.40;;;1.20;;
2956;SDS011;1488;51.548;7.222;2023-05-10T04:23:39;1.40;;;1.30;;
2956;SDS011;1488;51.548;7.222;2023-05-10T04:26:07;1.40;;;1.30;;
2956;SDS011;1488;51.548;7.222;2023-05-10T04:28:33;1.60;;;1.50;;
2956;SDS011;1488;51.548;7.222;2023-05-10T04:31:01;1.80;;;1.47;;
2956;SDS011;1488;51.548;7.222;2023-05-10T04:33:28;1.43;;;1.33;;
2956;SDS011;1488;51.548;7.222;2023-05-10T04:35:55;1.40;;;1.30;;
2956;SDS011;1488;51.548;7.222;2023-05-10T04:38:24;1.23;;;1.13;;
2956;SDS011;1488;51.548;7.222;2023-05-10T04:40:50;1.27;;;1.13;;
2956;SDS011;1488;51.548;7.222;2023-05-10T04:43:17;1.50;;;1.40;;
2956;SDS011;1488;51.548;7.222;2023-05-10T04:45:44;1.20;;;1.10;;
2956;SDS011;1488;51.548;7.222;2023-05-10T04:48:11;1.40;;;1.10;;
2956;SDS011;1488;51.548;7.222;2023-05-10T04:50:38;1.47;;;1.23;;
2956;SDS011;1488;51.548;7.222;2023-05-10T04:53:05;1.37;;;1.27;;
2956;SDS011;1488;51.548;7.222;2023-05-10T04:55:34;1.40;;;1.30;;
2956;SDS011;1488;51.548;7.222;2023-05-10T04:58:01;2.00;;;1.70;;
2956;SDS011;1488;51.548;7.222;2023-05-10T05:00:28;1.20;;;1.00;;
2956;SDS011;1488;51.548;7.222;2023-05-10T05:02:55;1.50;;;1.20;;
2956;SDS011;1488;51.548;7.222;2023-05-10T05:05:22;1.30;;;1.20;;
2956;SDS011;1488;51.548;7.222;2023-05-10T05:07:49;1.23;;;1.13;;
2956;SDS011;1488;51.548;7.222;2023-05-10T05:10:15;1.40;;;1.30;;
2956;SDS011;1488;51.548;7.222;2023-05-10T05:12:44;1.20;;;1.10;;
2956;SDS011;1488;51.548;7.222;2023-05-10T05:15:10;1.20;;;1.10;;
2956;SDS011;1488;51.548;7.222;2023-05-10T05:17:37;1.40;;;1.30;;
2956;SDS011;1488;51.548;7.222;2023-05-10T05:20:05;1.30;;;1.20;;
2956;SDS011;1488;51.548;7.222;2023-05-10T05:22:33;1.50;;;1.30;;
2956;SDS011;1488;51.548;7.222;2023-05-10T05:24:59;1.40;;;1.30;;
2956;SDS011;1488;51.548;7.222;2023-05-10T05:27:27;1.20;;;1.10;;
2956;SDS011;1488;51.548;7.222;2023-05-10T05:29:56;1.30;;;1.10;;
2956;SDS011;1488;51.548;7.222;2023-05-10T05:32:23;1.50;;;1.10;;
2956;SDS011;1488;51.548;7.222;2023-05-10T05:34:50;1.40;;;1.30;;
2956;SDS011;1488;51.548;7.222;2023-05-10T05:37:18;1.27;;;1.17;;
2956;SDS011;1488;51.548;7.222;2023-05-10T05:39:47;1.13;;;1.03;;
2956;SDS011;1488;51.548;7.222;2023-05-10T05:42:14;1.40;;;1.30;;
2956;SDS011;1488;51.548;7.222;2023-05-10T05:44:42;1.20;;;1.10;;
2956;SDS011;1488;51.548;7.222;2023-05-10T05:47:11;1.30;;;1.13;;
2956;SDS011;1488;51.548;7.222;2023-05-10T05:49:38;1.30;;;1.20;;
2956;SDS011;1488;51.548;7.222;2023-05-10T05:52:04;1.60;;;1.50;;
2956;SDS011;1488;51.548;7.222;2023-05-10T05:54:31;1.40;;;1.30;;
2956;SDS011;1488;51.548;7.222;2023-05-10T05:56:58;1.40;;;1.30;;
2956;SDS011;1488;51.548;7.222;2023-05-10T05:59:26;1.57;;;1.00;;
2956;SDS011;1488;51.548;7.222;2023-05-10T06:01:53;1.50;;;1.40;;
2956;SDS011;1488;51.548;7.222;2023-05-10T06:04:22;1.40;;;1.30;;
2956;SDS011;1488;51.548;7.222;2023-05-10T06:06:48;1.43;;;1.33;;
2956;SDS011;1488;51.548;7.222;2023-05-10T06:09:15;1.60;;;1.50;;
2956;SDS011;1488;51.548;7.222;2023-05-10T06:11:42;1.20;;;1.10;;
2956;SDS011;1488;51.548;7.222;2023-05-10T06:14:09;1.60;;;1.50;;
2956;SDS011;1488;51.548;7.222;2023-05-10T06:16:36;1.30;;;1.20;;
2956;SDS011;1488;51.548;7.222;2023-05-10T06:19:03;1.57;;;1.47;;
2956;SDS011;1488;51.548;7.222;2023-05-10T06:21:31;1.50;;;1.20;;
2956;SDS011;1488;51.548;7.222;2023-05-10T06:23:58;1.77;;;1.60;;
2956;SDS011;1488;51.548;7.222;2023-05-10T06:26:24;1.53;;;1.27;;
2956;SDS011;1488;51.548;7.222;2023-05-10T06:28:51;1.30;;;1.20;;
2956;SDS011;1488;51.548;7.222;2023-05-10T06:31:18;1.40;;;1.30;;
2956;SDS011;1488;51.548;7.222;2023-05-10T06:33:46;1.30;;;1.20;;
2956;SDS011;1488;51.548;7.222;2023-05-10T06:36:12;1.23;;;1.13;;
2956;SDS011;1488;51.548;7.222;2023-05-10T06:38:40;1.30;;;1.10;;
2956;SDS011;1488;51.548;7.222;2023-05-10T06:41:07;1.50;;;1.40;;
2956;SDS011;1488;51.548;7.222;2023-05-10T06:43:34;1.73;;;1.23;;
2956;SDS011;1488;51.548;7.222;2023-05-10T06:46:04;1.50;;;1.40;;
2956;SDS011;1488;51.548;7.222;2023-05-10T06:48:31;1.40;;;1.30;;
2956;SDS011;1488;51.548;7.222;2023-05-10T06:50:59;1.50;;;1.40;;
2956;SDS011;1488;51.548;7.222;2023-05-10T06:53:25;1.30;;;1.20;;
2956;SDS011;1488;51.548;7.222;2023-05-10T06:55:53;1.30;;;1.20;;
2956;SDS011;1488;51.548;7.222;2023-05-10T06:58:20;1.40;;;1.27;;
2956;SDS011;1488;51.548;7.222;2023-05-10T07:00:47;1.47;;;1.37;;
2956;SDS011;1488;51.548;7.222;2023-05-10T07:03:14;1.50;;;1.40;;
2956;SDS011;1488;51.548;7.222;2023-05-10T07:05:41;1.37;;;1.27;;
2956;SDS011;1488;51.548;7.222;2023-05-10T07:08:08;1.30;;;1.20;;
2956;SDS011;1488;51.548;7.222;2023-05-10T07:10:35;1.60;;;1.50;;
2956;SDS011;1488;51.548;7.222;2023-05-10T07:13:03;1.33;;;1.20;;
2956;SDS011;1488;51.548;7.222;2023-05-10T07:15:30;1.40;;;1.30;;
2956;SDS011;1488;51.548;7.222;2023-05-10T07:17:57;1.30;;;1.20;;
2956;SDS011;1488;51.548;7.222;2023-05-10T07:20:24;1.50;;;1.40;;
2956;SDS011;1488;51.548;7.222;2023-05-10T07:22:51;1.60;;;1.50;;
2956;SDS011;1488;51.548;7.222;2023-05-10T07:25:17;1.40;;;1.30;;
2956;SDS011;1488;51.548;7.222;2023-05-10T07:27:44;1.40;;;1.30;;
2956;SDS011;1488;51.548;7.222;2023-05-10T07:30:14;1.60;;;1.50;;
2956;SDS011;1488;51.548;7.222;2023-05-10T07:32:41;1.20;;;1.10;;
2956;SDS011;1488;51.548;7.222;2023-05-10T07:35:08;1.60;;;1.40;;
2956;SDS011;1488;51.548;7.222;2023-05-10T07:37:35;1.60;;;1.50;;
2956;SDS011;1488;51.548;7.222;2023-05-10T07:40:02;1.20;;;1.10;;
2956;SDS011;1488;51.548;7.222;2023-05-10T07:42:29;1.63;;;1.20;;
2956;SDS011;1488;51.548;7.222;2023-05-10T07:44:56;1.23;;;1.13;;
2956;SDS011;1488;51.548;7.222;2023-05-10T07:47:24;1.50;;;1.40;;
2956;SDS011;1488;51.548;7.222;2023-05-10T07:49:50;1.50;;;1.40;;
2956;SDS011;1488;51.548;7.222;2023-05-10T07:52:17;1.40;;;1.30;;
2956;SDS011;1488;51.548;7.222;2023-05-10T07:54:44;1.67;;;1.57;;
2956;SDS011;1488;51.548;7.222;2023-05-10T07:57:11;1.60;;;1.50;;
2956;SDS011;1488;51.548;7.222;2023-05-10T07:59:39;1.40;;;1.30;;
2956;SDS011;1488;51.548;7.222;2023-05-10T08:02:06;1.70;;;1.60;;
2956;SDS011;1488;51.548;7.222;2023-05-10T08:04:34;1.30;;;1.20;;
2956;SDS011;1488;51.548;7.222;2023-05-10T08:07:01;1.70;;;1.60;;
2956;SDS011;1488;51.548;7.222;2023-05-10T08:09:28;1.83;;;1.73;;
2956;SDS011;1488;51.548;7.222;2023-05-10T08:11:54;1.40;;;1.30;;
2956;SDS011;1488;51.548;7.222;2023-05-10T08:14:21;1.40;;;1.30;;
2956;SDS011;1488;51.548;7.222;2023-05-10T08:16:48;1.60;;;1.50;;
2956;SDS011;1488;51.548;7.222;2023-05-10T08:19:15;1.60;;;1.50;;
2956;SDS011;1488;51.548;7.222;2023-05-10T08:21:45;1.93;;;1.73;;
2956;SDS011;1488;51.548;7.222;2023-05-10T08:24:12;1.40;;;1.30;;
2956;SDS011;1488;51.548;7.222;2023-05-10T08:26:39;1.43;;;1.33;;
2956;SDS011;1488;51.548;7.222;2023-05-10T08:29:05;1.43;;;1.33;;
2956;SDS011;1488;51.548;7.222;2023-05-10T08:31:32;1.67;;;1.57;;
2956;SDS011;1488;51.548;7.222;2023-05-10T08:33:59;1.50;;;1.40;;
2956;SDS011;1488;51.548;7.222;2023-05-10T08:36:26;1.60;;;1.50;;
2956;SDS011;1488;51.548;7.222;2023-05-10T08:38:54;1.60;;;1.50;;
2956;SDS011;1488;51.548;7.222;2023-05-10T08:41:21;1.40;;;1.30;;
2956;SDS011;1488;51.548;7.222;2023-05-10T08:43:51;1.70;;;1.60;;
2956;SDS011;1488;51.548;7.222;2023-05-10T08:46:19;1.60;;;1.47;;
2956;SDS011;1488;51.548;7.222;2023-05-10T08:48:48;1.70;;;1.37;;
2956;SDS011;1488;51.548;7.222;2023-05-10T08:51:17;1.60;;;1.50;;
2956;SDS011;1488;51.548;7.222;2023-05-10T08:53:46;1.60;;;1.50;;
2956;SDS011;1488;51.548;7.222;2023-05-10T08:56:15;2.10;;;1.60;;
2956;SDS011;1488;51.548;7.222;2023-05-10T08:58:42;1.53;;;1.43;;
2956;SDS011;1488;51.548;7.222;2023-05-10T09:01:10;1.70;;;1.57;;
2956;SDS011;1488;51.548;7.222;2023-05-10T09:03:38;1.70;;;1.60;;
2956;SDS011;1488;51.548;7.222;2023-05-10T09:06:06;1.60;;;1.50;;
2956;SDS011;1488;51.548;7.222;2023-05-10T09:08:33;1.53;;;1.43;;
2956;SDS011;1488;51.548;7.222;2023-05-10T09:11:00;1.67;;;1.57;;
2956;SDS011;1488;51.548;7.222;2023-05-10T09:13:29;1.97;;;1.77;;
2956;SDS011;1488;51.548;7.222;2023-05-10T09:15:56;1.60;;;1.50;;
2956;SDS011;1488;51.548;7.222;2023-05-10T09:18:23;1.27;;;1.17;;
2956;SDS011;1488;51.548;7.222;2023-05-10T09:20:50;1.70;;;1.60;;
2956;SDS011;1488;51.548;7.222;2023-05-10T09:23:17;1.70;;;1.60;;
2956;SDS011;1488;51.548;7.222;2023-05-10T09:25:45;1.67;;;1.47;;
2956;SDS011;1488;51.548;7.222;2023-05-10T09:28:12;1.57;;;1.47;;
2956;SDS011;1488;51.548;7.222;2023-05-10T09:30:40;1.60;;;1.50;;
2956;SDS011;1488;51.548;7.222;2023-05-10T09:33:07;1.50;;;1.40;;
2956;SDS011;1488;51.548;7.222;2023-05-10T09:35:34;1.63;;;1.53;;
2956;SDS011;1488;51.548;7.222;2023-05-10T09:38:02;1.50;;;1.40;;
2956;SDS011;1488;51.548;7.222;2023-05-10T09:40:30;1.43;;;1.33;;
2956;SDS011;1488;51.548;7.222;2023-05-10T09:42:58;1.40;;;1.30;;
2956;SDS011;1488;51.548;7.222;2023-05-10T09:45:26;1.83;;;1.60;;
2956;SDS011;1488;51.548;7.222;2023-05-10T09:47:55;1.50;;;1.40;;
2956;SDS011;1488;51.548;7.222;2023-05-10T09:50:23;1.97;;;1.80;;
2956;SDS011;1488;51.548;7.222;2023-05-10T09:52:50;1.70;;;1.60;;
2956;SDS011;1488;51.548;7.222;2023-05-10T09:55:18;1.67;;;1.57;;
2956;SDS011;1488;51.548;7.222;2023-05-10T09:57:47;1.80;;;1.50;;
2956;SDS011;1488;51.548;7.222;2023-05-10T10:00:18;1.63;;;1.53;;
2956;SDS011;1488;51.548;7.222;2023-05-10T10:02:46;1.60;;;1.50;;
2956;SDS011;1488;51.548;7.222;2023-05-10T10:05:15;1.70;;;1.60;;
2956;SDS011;1488;51.548;7.222;2023-05-10T10:07:42;1.50;;;1.40;;
2956;SDS011;1488;51.548;7.222;2023-05-10T10:10:09;1.90;;;1.70;;
2956;SDS011;1488;51.548;7.222;2023-05-10T10:12:39;1.70;;;1.60;;
2956;SDS011;1488;51.548;7.222;2023-05-10T10:15:08;1.70;;;1.60;;
2956;SDS011;1488;51.548;7.222;2023-05-10T10:17:36;1.93;;;1.80;;
2956;SDS011;1488;51.548;7.222;2023-05-10T10:20:04;1.70;;;1.60;;
2956;SDS011;1488;51.548;7.222;2023-05-10T10:22:34;1.70;;;1.60;;
2956;SDS011;1488;51.548;7.222;2023-05-10T10:25:00;1.73;;;1.63;;
2956;SDS011;1488;51.548;7.222;2023-05-10T10:27:28;1.80;;;1.70;;
2956;SDS011;1488;51.548;7.222;2023-05-10T10:30:04;1.70;;;1.60;;
2956;SDS011;1488;51.548;7.222;2023-05-10T10:32:44;1.77;;;1.67;;
2956;SDS011;1488;51.548;7.222;2023-05-10T10:35:26;1.90;;;1.80;;
2956;SDS011;1488;51.548;7.222;2023-05-10T10:37:56;1.63;;;1.53;;
2956;SDS011;1488;51.548;7.222;2023-05-10T10:40:24;1.60;;;1.50;;
2956;SDS011;1488;51.548;7.222;2023-05-10T10:42:52;2.03;;;1.63;;
2956;SDS011;1488;51.548;7.222;2023-05-10T10:45:19;1.43;;;1.33;;
2956;SDS011;1488;51.548;7.222;2023-05-10T10:47:47;2.00;;;1.90;;
2956;SDS011;1488;51.548;7.222;2023-05-10T10:50:14;1.60;;;1.50;;
2956;SDS011;1488;51.548;7.222;2023-05-10T10:52:42;1.43;;;1.33;;
2956;SDS011;1488;51.548;7.222;2023-05-10T10:55:11;1.60;;;1.50;;
2956;SDS011;1488;51.548;7.222;2023-05-10T10:57:42;2.40;;;2.30;;
2956;SDS011;1488;51.548;7.222;2023-05-10T11:00:17;2.47;;;1.70;;
2956;SDS011;1488;51.548;7.222;2023-05-10T11:02:46;1.60;;;1.50;;
2956;SDS011;1488;51.548;7.222;2023-05-10T11:08:18;1.60;;;1.50;;
2956;SDS011;1488;51.548;7.222;2023-05-10T11:10:52;1.93;;;1.50;;
2956;SDS011;1488;51.548;7.222;2023-05-10T11:13:28;1.87;;;1.77;;
2956;SDS011;1488;51.548;7.222;2023-05-10T11:15:56;1.53;;;1.43;;
2956;SDS011;1488;51.548;7.222;2023-05-10T11:18:24;1.50;;;1.40;;
2956;SDS011;1488;51.548;7.222;2023-05-10T11:20:52;1.93;;;1.63;;
2956;SDS011;1488;51.548;7.222;2023-05-10T11:23:21;2.17;;;1.60;;
2956;SDS011;1488;51.548;7.222;2023-05-10T11:25:48;1.90;;;1.70;;
2956;SDS011;1488;51.548;7.222;2023-05-10T11:28:17;1.60;;;1.50;;
2956;SDS011;1488;51.548;7.222;2023-05-10T11:30:45;1.83;;;1.73;;
2956;SDS011;1488;51.548;7.222;2023-05-10T11:33:15;1.70;;;1.60;;
2956;SDS011;1488;51.548;7.222;2023-05-10T11:35:43;1.80;;;1.70;;
2956;SDS011;1488;51.548;7.222;2023-05-10T11:38:10;1.60;;;1.50;;
2956;SDS011;1488;51.548;7.222;2023-05-10T11:40:38;1.83;;;1.73;;
2956;SDS011;1488;51.548;7.222;2023-05-10T11:43:06;1.90;;;1.67;;
2956;SDS011;1488;51.548;7.222;2023-05-10T11:45:37;1.90;;;1.80;;
2956;SDS011;1488;51.548;7.222;2023-05-10T11:48:04;2.10;;;1.90;;
2956;SDS011;1488;51.548;7.222;2023-05-10T11:50:31;2.00;;;1.90;;
2956;SDS011;1488;51.548;7.222;2023-05-10T11:52:57;1.70;;;1.60;;
2956;SDS011;1488;51.548;7.222;2023-05-10T11:55:24;1.80;;;1.70;;
2956;SDS011;1488;51.548;7.222;2023-05-10T11:57:51;1.87;;;1.77;;
2956;SDS011;1488;51.548;7.222;2023-05-10T12:00:19;1.60;;;1.50;;
2956;SDS011;1488;51.548;7.222;2023-05-10T12:02:47;1.60;;;1.50;;
2956;SDS011;1488;51.548;7.222;2023-05-10T12:05:14;1.80;;;1.70;;
2956;SDS011;1488;51.548;7.222;2023-05-10T12:07:42;2.50;;;2.17;;
2956;SDS011;1488;51.548;7.222;2023-05-10T12:10:09;2.17;;;2.00;;
2956;SDS011;1488;51.548;7.222;2023-05-10T12:12:39;1.60;;;1.50;;
2956;SDS011;1488;51.548;7.222;2023-05-10T12:15:11;1.73;;;1.63;;
2956;SDS011;1488;51.548;7.222;2023-05-10T12:17:38;1.87;;;1.77;;
2956;SDS011;1488;51.548;7.222;2023-05-10T12:20:14;2.00;;;1.90;;
2956;SDS011;1488;51.548;7.222;2023-05-10T12:22:43;1.50;;;1.40;;
2956;SDS011;1488;51.548;7.222;2023-05-10T12:25:15;1.90;;;1.60;;
2956;SDS011;1488;51.548;7.222;2023-05-10T12:27:47;1.70;;;1.60;;
2956;SDS011;1488;51.548;7.222;2023-05-10T12:30:18;1.90;;;1.80;;
2956;SDS011;1488;51.548;7.222;2023-05-10T12:32:47;1.80;;;1.70;;
2956;SDS011;1488;51.548;7.222;2023-05-10T12:35:15;1.67;;;1.50;;
2956;SDS011;1488;51.548;7.222;2023-05-10T12:37:42;2.17;;;2.03;;
2956;SDS011;1488;51.548;7.222;2023-05-10T12:40:10;1.90;;;1.80;;
2956;SDS011;1488;51.548;7.222;2023-05-10T12:42:38;2.30;;;2.10;;
2956;SDS011;1488;51.548;7.222;2023-05-10T12:45:05;2.27;;;2.07;;
2956;SDS011;1488;51.548;7.222;2023-05-10T12:47:34;2.10;;;2.00;;
2956;SDS011;1488;51.548;7.222;2023-05-10T12:50:01;1.67;;;1.57;;
2956;SDS011;1488;51.548;7.222;2023-05-10T12:52:30;2.30;;;2.10;;
2956;SDS011;1488;51.548;7.222;2023-05-10T12:54:57;1.70;;;1.60;;
2956;SDS011;1488;51.548;7.222;2023-05-10T12:57:24;2.10;;;1.90;;
2956;SDS011;1488;51.548;7.222;2023-05-10T12:59:51;1.73;;;1.63;;
2956;SDS011;1488;51.548;7.222;2023-05-10T13:02:18;1.83;;;1.73;;
2956;SDS011;1488;51.548;7.222;2023-05-10T13:04:46;1.90;;;1.80;;
2956;SDS011;1488;51.548;7.222;2023-05-10T13:07:13;1.90;;;1.80;;
2956;SDS011;1488;51.548;7.222;2023-05-10T13:09:41;2.03;;;1.83;;
2956;SDS011;1488;51.548;7.222;2023-05-10T13:12:08;1.80;;;1.70;;
2956;SDS011;1488;51.548;7.222;2023-05-10T13:14:35;2.00;;;1.90;;
2956;SDS011;1488;51.548;7.222;2023-05-10T13:17:02;2.20;;;2.10;;
2956;SDS011;1488;51.548;7.222;2023-05-10T13:19:29;1.80;;;1.70;;
2956;SDS011;1488;51.548;7.222;2023-05-10T13:21:55;2.03;;;1.83;;
2956;SDS011;1488;51.548;7.222;2023-05-10T13:24:23;1.70;;;1.60;;
2956;SDS011;1488;51.548;7.222;2023-05-10T13:26:51;1.73;;;1.63;;
2956;SDS011;1488;51.548;7.222;2023-05-10T13:29:17;1.93;;;1.80;;
2956;SDS011;1488;51.548;7.222;2023-05-10T13:31:45;1.50;;;1.40;;
2956;SDS011;1488;51.548;7.222;2023-05-10T13:34:12;2.60;;;1.83;;
2956;SDS011;1488;51.548;7.222;2023-05-10T13:36:39;1.50;;;1.40;;
2956;SDS011;1488;51.548;7.222;2023-05-10T13:39:06;1.80;;;1.70;;
2956;SDS011;1488;51.548;7.222;2023-05-10T13:41:33;2.33;;;2.13;;
2956;SDS011;1488;51.548;7.222;2023-05-10T13:44:03;2.00;;;1.90;;
2956;SDS011;1488;51.548;7.222;2023-05-10T13:46:29;1.50;;;1.40;;
2956;SDS011;1488;51.548;7.222;2023-05-10T13:48:56;1.70;;;1.60;;
2956;SDS011;1488;51.548;7.222;2023-05-10T13:51:23;1.70;;;1.60;;
2956;SDS011;1488;51.548;7.222;2023-05-10T13:53:50;1.80;;;1.70;;
2956;SDS011;1488;51.548;7.222;2023-05-10T13:56:17;1.60;;;1.50;;
2956;SDS011;1488;51.548;7.222;2023-05-10T13:58:43;2.03;;;1.80;;
2956;SDS011;1488;51.548;7.222;2023-05-10T14:01:12;1.83;;;1.73;;
2956;SDS011;1488;51.548;7.222;2023-05-10T14:03:38;2.20;;;2.10;;
2956;SDS011;1488;51.548;7.222;2023-05-10T14:06:05;1.70;;;1.60;;
2956;SDS011;1488;51.548;7.222;2023-05-10T14:08:33;1.80;;;1.70;;
2956;SDS011;1488;51.548;7.222;2023-05-10T14:11:00;2.13;;;1.93;;
2956;SDS011;1488;51.548;7.222;2023-05-10T14:13:27;1.93;;;1.83;;
2956;SDS011;1488;51.548;7.222;2023-05-10T14:15:55;1.73;;;1.63;;
2956;SDS011;1488;51.548;7.222;2023-05-10T14:18:23;1.90;;;1.80;;
2956;SDS011;1488;51.548;7.222;2023-05-10T14:20:51;1.90;;;1.80;;
2956;SDS011;1488;51.548;7.222;2023-05-10T14:23:18;1.87;;;1.77;;
2956;SDS011;1488;51.548;7.222;2023-05-10T14:25:49;1.83;;;1.73;;
2956;SDS011;1488;51.548;7.222;2023-05-10T14:28:16;1.60;;;1.50;;
2956;SDS011;1488;51.548;7.222;2023-05-10T14:30:43;1.37;;;1.20;;
2956;SDS011;1488;51.548;7.222;2023-05-10T14:33:10;1.70;;;1.60;;
2956;SDS011;1488;51.548;7.222;2023-05-10T14:35:38;1.77;;;1.67;;
2956;SDS011;1488;51.548;7.222;2023-05-10T14:38:05;1.80;;;1.70;;
2956;SDS011;1488;51.548;7.222;2023-05-10T14:40:32;1.80;;;1.70;;
2956;SDS011;1488;51.548;7.222;2023-05-10T14:42:59;2.20;;;2.10;;
2956;SDS011;1488;51.548;7.222;2023-05-10T14:45:26;1.60;;;1.50;;
2956;SDS011;1488;51.548;7.222;2023-05-10T14:47:53;1.80;;;1.70;;
2956;SDS011;1488;51.548;7.222;2023-05-10T14:50:19;1.93;;;1.70;;
2956;SDS011;1488;51.548;7.222;2023-05-10T14:52:48;2.17;;;1.97;;
2956;SDS011;1488;51.548;7.222;2023-05-10T14:55:15;1.73;;;1.63;;
2956;SDS011;1488;51.548;7.222;2023-05-10T14:57:42;1.60;;;1.50;;
2956;SDS011;1488;51.548;7.222;2023-05-10T15:00:12;1.90;;;1.80;;
2956;SDS011;1488;51.548;7.222;2023-05-10T15:02:41;2.10;;;2.00;;
2956;SDS011;1488;51.548;7.222;2023-05-10T15:05:10;1.77;;;1.67;;
2956;SDS011;1488;51.548;7.222;2023-05-10T15:07:37;1.73;;;1.63;;
2956;SDS011;1488;51.548;7.222;2023-05-10T15:10:06;2.20;;;2.00;;
2956;SDS011;1488;51.548;7.222;2023-05-10T15:12:34;1.80;;;1.70;;
2956;SDS011;1488;51.548;7.222;2023-05-10T15:15:01;2.13;;;1.70;;
2956;SDS011;1488;51.548;7.222;2023-05-10T15:17:28;1.63;;;1.53;;
2956;SDS011;1488;51.548;7.222;2023-05-10T15:19:55;2.00;;;1.80;;
2956;SDS011;1488;51.548;7.222;2023-05-10T15:22:22;1.97;;;1.77;;
2956;SDS011;1488;51.548;7.222;2023-05-10T15:24:49;1.97;;;1.80;;
2956;SDS011;1488;51.548;7.222;2023-05-10T15:27:17;1.90;;;1.80;;